sensor_id;sensor_type;location;lat;lon;timestamp;pressure;altitude;pressure_sealevel;temperature;humidity
10618;BME280;5356;43.526;26.534;2023-03-13T00:01:22;99517.59;;;4.18;75.07
10618;BME280;5356;43.526;26.534;2023-03-13T00:03:48;99520.44;;;4.08;75.47
10618;BME280;5356;43.526;26.534;2023-03-13T00:06:14;99520.13;;;4.03;75.90
10618;BME280;5356;43.526;26.534;2023-03-13T00:08:40;99516.13;;;4.07;75.98
10618;BME280;5356;43.526;26.534;2023-03-13T00:11:10;99520.44;;;4.08;75.92
10618;BME280;5356;43.526;26.534;2023-03-13T00:13:36;99521.13;;;4.02;75.54
10618;BME280;5356;43.526;26.534;2023-03-13T00:16:10;99526.06;;;3.97;75.49
10618;BME280;5356;43.526;26.534;2023-03-13T00:18:37;99531.06;;;3.59;77.49
10618;BME280;5356;43.526;26.534;2023-03-13T00:21:07;99529.25;;;3.59;77.67
10618;BME280;5356;43.526;26.534;2023-03-13T00:23:35;99528.75;;;3.72;77.34
10618;BME280;5356;43.526;26.534;2023-03-13T00:26:05;99524.78;;;3.76;77.58
10618;BME280;5356;43.526;26.534;2023-03-13T00:28:33;99519.81;;;3.90;77.26
10618;BME280;5356;43.526;26.534;2023-03-13T00:31:09;99523.44;;;3.97;76.69
10618;BME280;5356;43.526;26.534;2023-03-13T00:33:37;99522.28;;;3.91;76.45
10618;BME280;5356;43.526;26.534;2023-03-13T00:36:05;99529.06;;;3.86;76.72
10618;BME280;5356;43.526;26.534;2023-03-13T00:38:31;99524.13;;;3.82;77.29
10618;BME280;5356;43.526;26.534;2023-03-13T00:41:10;99517.19;;;3.81;77.46
10618;BME280;5356;43.526;26.534;2023-03-13T00:43:40;99512.09;;;3.88;76.30
10618;BME280;5356;43.526;26.534;2023-03-13T00:46:07;99511.63;;;3.68;76.90
10618;BME280;5356;43.526;26.534;2023-03-13T00:48:33;99518.88;;;3.58;77.47
10618;BME280;5356;43.526;26.534;2023-03-13T00:50:59;99516.44;;;3.48;77.58
10618;BME280;5356;43.526;26.534;2023-03-13T00:53:25;99517.25;;;3.32;77.83
10618;BME280;5356;43.526;26.534;2023-03-13T00:56:11;99515.94;;;3.20;78.51
10618;BME280;5356;43.526;26.534;2023-03-13T00:58:38;99524.47;;;3.30;78.45
10618;BME280;5356;43.526;26.534;2023-03-13T01:01:09;99529.94;;;3.37;78.56
10618;BME280;5356;43.526;26.534;2023-03-13T01:03:35;99526.97;;;3.40;78.02
10618;BME280;5356;43.526;26.534;2023-03-13T01:06:02;99536.69;;;3.31;78.41
10618;BME280;5356;43.526;26.534;2023-03-13T01:08:28;99534.03;;;3.23;78.38
10618;BME280;5356;43.526;26.534;2023-03-13T01:11:01;99537.94;;;3.03;79.21
10618;BME280;5356;43.526;26.534;2023-03-13T01:13:30;99523.94;;;2.94;79.07
10618;BME280;5356;43.526;26.534;2023-03-13T01:16:04;99534.47;;;3.02;79.65
10618;BME280;5356;43.526;26.534;2023-03-13T01:18:30;99538.13;;;3.09;79.78
10618;BME280;5356;43.526;26.534;2023-03-13T01:20:56;99523.84;;;3.20;79.60
10618;BME280;5356;43.526;26.534;2023-03-13T01:23:22;99533.03;;;3.24;79.35
10618;BME280;5356;43.526;26.534;2023-03-13T01:25:47;99530.41;;;3.24;79.56
10618;BME280;5356;43.526;26.534;2023-03-13T01:28:13;99533.84;;;3.33;79.38
10618;BME280;5356;43.526;26.534;2023-03-13T01:30:39;99538.97;;;3.26;79.41
10618;BME280;5356;43.526;26.534;2023-03-13T01:33:05;99532.56;;;3.29;79.46
10618;BME280;5356;43.526;26.534;2023-03-13T01:35:30;99531.72;;;3.28;78.53
10618;BME280;5356;43.526;26.534;2023-03-13T01:37:56;99536.31;;;3.10;79.06
10618;BME280;5356;43.526;26.534;2023-03-13T01:40:21;99535.63;;;3.00;79.36
10618;BME280;5356;43.526;26.534;2023-03-13T01:42:58;99532.69;;;2.95;79.91
10618;BME280;5356;43.526;26.534;2023-03-13T01:45:53;99539.09;;;2.92;80.10
10618;BME280;5356;43.526;26.534;2023-03-13T01:50:55;99547.13;;;2.82;80.59
10618;BME280;5356;43.526;26.534;2023-03-13T01:53:23;99550.41;;;2.84;80.82
10618;BME280;5356;43.526;26.534;2023-03-13T01:55:50;99560.75;;;2.86;80.27
10618;BME280;5356;43.526;26.534;2023-03-13T01:58:17;99553.50;;;2.80;80.54
10618;BME280;5356;43.526;26.534;2023-03-13T02:00:42;99565.38;;;2.84;80.49
10618;BME280;5356;43.526;26.534;2023-03-13T02:03:12;99576.41;;;2.87;80.46
10618;BME280;5356;43.526;26.534;2023-03-13T02:05:40;99577.41;;;2.95;80.52
10618;BME280;5356;43.526;26.534;2023-03-13T02:08:14;99581.69;;;2.96;80.83
10618;BME280;5356;43.526;26.534;2023-03-13T02:13:33;99589.41;;;2.89;80.65
10618;BME280;5356;43.526;26.534;2023-03-13T02:16:00;99585.47;;;2.93;80.85
10618;BME280;5356;43.526;26.534;2023-03-13T02:18:25;99583.66;;;3.02;80.43
10618;BME280;5356;43.526;26.534;2023-03-13T02:20:53;99585.63;;;3.00;80.76
10618;BME280;5356;43.526;26.534;2023-03-13T02:23:28;99587.78;;;3.04;80.28
10618;BME280;5356;43.526;26.534;2023-03-13T02:25:56;99600.28;;;3.02;80.63
10618;BME280;5356;43.526;26.534;2023-03-13T02:28:24;99604.56;;;3.03;80.31
10618;BME280;5356;43.526;26.534;2023-03-13T02:30:54;99597.97;;;2.99;79.98
10618;BME280;5356;43.526;26.534;2023-03-13T02:33:21;99599.94;;;2.97;79.77
10618;BME280;5356;43.526;26.534;2023-03-13T02:35:51;99596.44;;;2.80;80.16
10618;BME280;5356;43.526;26.534;2023-03-13T02:38:22;99608.94;;;2.78;79.56
10618;BME280;5356;43.526;26.534;2023-03-13T02:40:49;99601.69;;;2.72;80.27
10618;BME280;5356;43.526;26.534;2023-03-13T02:43:29;99602.00;;;2.69;80.47
10618;BME280;5356;43.526;26.534;2023-03-13T02:46:37;99607.53;;;2.58;80.46
10618;BME280;5356;43.526;26.534;2023-03-13T02:48:56;99612.75;;;2.50;80.47
10618;BME280;5356;43.526;26.534;2023-03-13T02:51:41;99611.56;;;2.44;80.67
10618;BME280;5356;43.526;26.534;2023-03-13T02:54:12;99618.06;;;2.32;80.74
10618;BME280;5356;43.526;26.534;2023-03-13T02:56:40;99620.69;;;2.32;81.21
10618;BME280;5356;43.526;26.534;2023-03-13T02:59:07;99626.44;;;2.27;81.22
10618;BME280;5356;43.526;26.534;2023-03-13T03:01:32;99626.44;;;2.27;81.36
10618;BME280;5356;43.526;26.534;2023-03-13T03:03:58;99633.34;;;2.28;81.04
10618;BME280;5356;43.526;26.534;2023-03-13T03:06:23;99629.97;;;2.18;81.50
10618;BME280;5356;43.526;26.534;2023-03-13T03:08:49;99631.63;;;2.19;81.31
10618;BME280;5356;43.526;26.534;2023-03-13T03:11:14;99632.91;;;2.15;81.62
10618;BME280;5356;43.526;26.534;2023-03-13T03:13:40;99629.00;;;2.19;81.90
10618;BME280;5356;43.526;26.534;2023-03-13T03:16:07;99631.84;;;2.25;81.17
10618;BME280;5356;43.526;26.534;2023-03-13T03:18:34;99644.09;;;2.17;80.74
10618;BME280;5356;43.526;26.534;2023-03-13T03:21:01;99635.78;;;2.03;81.50
10618;BME280;5356;43.526;26.534;2023-03-13T03:23:26;99648.72;;;1.97;81.28
10618;BME280;5356;43.526;26.534;2023-03-13T03:25:52;99643.50;;;1.79;82.57
10618;BME280;5356;43.526;26.534;2023-03-13T03:28:17;99654.38;;;1.84;82.60
10618;BME280;5356;43.526;26.534;2023-03-13T03:30:43;99659.63;;;1.84;82.48
10618;BME280;5356;43.526;26.534;2023-03-13T03:33:08;99654.72;;;1.89;82.42
10618;BME280;5356;43.526;26.534;2023-03-13T03:35:33;99669.53;;;1.90;82.11
10618;BME280;5356;43.526;26.534;2023-03-13T03:38:02;99667.53;;;1.84;82.14
10618;BME280;5356;43.526;26.534;2023-03-13T03:40:28;99663.53;;;1.80;82.49
10618;BME280;5356;43.526;26.534;2023-03-13T03:42:54;99672.00;;;1.74;82.15
10618;BME280;5356;43.526;26.534;2023-03-13T03:45:19;99682.13;;;1.69;82.17
10618;BME280;5356;43.526;26.534;2023-03-13T03:47:45;99688.44;;;1.76;82.05
10618;BME280;5356;43.526;26.534;2023-03-13T03:50:11;99691.59;;;1.79;81.32
10618;BME280;5356;43.526;26.534;2023-03-13T03:52:37;99697.97;;;1.77;81.43
10618;BME280;5356;43.526;26.534;2023-03-13T03:55:03;99701.59;;;1.76;81.56
10618;BME280;5356;43.526;26.534;2023-03-13T03:57:29;99710.28;;;1.76;81.59
10618;BME280;5356;43.526;26.534;2023-03-13T03:59:54;99708.47;;;1.77;81.82
10618;BME280;5356;43.526;26.534;2023-03-13T04:02:20;99713.94;;;1.84;81.16
10618;BME280;5356;43.526;26.534;2023-03-13T04:04:45;99728.06;;;1.83;80.75
10618;BME280;5356;43.526;26.534;2023-03-13T04:07:10;99722.59;;;1.76;81.44
10618;BME280;5356;43.526;26.534;2023-03-13T04:09:36;99733.41;;;1.73;81.79
10618;BME280;5356;43.526;26.534;2023-03-13T04:12:04;99731.44;;;1.75;81.57
10618;BME280;5356;43.526;26.534;2023-03-13T04:14:30;99737.38;;;1.77;80.96
10618;BME280;5356;43.526;26.534;2023-03-13T04:16:55;99738.06;;;1.79;81.45
10618;BME280;5356;43.526;26.534;2023-03-13T04:19:21;99741.13;;;1.74;81.12
10618;BME280;5356;43.526;26.534;2023-03-13T04:21:46;99743.81;;;1.65;81.14
10618;BME280;5356;43.526;26.534;2023-03-13T04:24:12;99743.34;;;1.51;81.05
10618;BME280;5356;43.526;26.534;2023-03-13T04:26:37;99763.66;;;1.49;81.62
10618;BME280;5356;43.526;26.534;2023-03-13T04:29:03;99742.06;;;1.55;82.05
10618;BME280;5356;43.526;26.534;2023-03-13T04:31:31;99756.25;;;1.63;82.07
10618;BME280;5356;43.526;26.534;2023-03-13T04:33:57;99759.19;;;1.60;81.73
10618;BME280;5356;43.526;26.534;2023-03-13T04:36:22;99762.50;;;1.62;81.85
10618;BME280;5356;43.526;26.534;2023-03-13T04:38:47;99755.34;;;1.54;81.14
10618;BME280;5356;43.526;26.534;2023-03-13T04:41:13;99764.53;;;1.40;81.94
10618;BME280;5356;43.526;26.534;2023-03-13T04:43:38;99765.66;;;1.38;82.82
10618;BME280;5356;43.526;26.534;2023-03-13T04:46:04;99773.63;;;1.46;82.61
10618;BME280;5356;43.526;26.534;2023-03-13T04:48:29;99781.09;;;1.50;82.32
10618;BME280;5356;43.526;26.534;2023-03-13T04:50:55;99775.84;;;1.50;82.32
10618;BME280;5356;43.526;26.534;2023-03-13T04:53:20;99784.06;;;1.55;81.96
10618;BME280;5356;43.526;26.534;2023-03-13T04:55:46;99774.94;;;1.60;82.10
10618;BME280;5356;43.526;26.534;2023-03-13T04:58:12;99786.25;;;1.60;82.43
10618;BME280;5356;43.526;26.534;2023-03-13T05:00:41;99789.06;;;1.59;82.35
10618;BME280;5356;43.526;26.534;2023-03-13T05:03:06;99795.13;;;1.59;82.56
10618;BME280;5356;43.526;26.534;2023-03-13T05:05:33;99797.59;;;1.61;82.67
10618;BME280;5356;43.526;26.534;2023-03-13T05:08:00;99797.16;;;1.65;82.73
10618;BME280;5356;43.526;26.534;2023-03-13T05:10:25;99804.88;;;1.67;82.76
10618;BME280;5356;43.526;26.534;2023-03-13T05:12:51;99796.97;;;1.76;82.50
10618;BME280;5356;43.526;26.534;2023-03-13T05:15:16;99794.84;;;1.80;82.62
10618;BME280;5356;43.526;26.534;2023-03-13T05:17:42;99796.34;;;1.83;82.35
10618;BME280;5356;43.526;26.534;2023-03-13T05:20:08;99794.13;;;1.88;82.40
10618;BME280;5356;43.526;26.534;2023-03-13T05:22:36;99799.91;;;1.91;81.90
10618;BME280;5356;43.526;26.534;2023-03-13T05:25:01;99804.47;;;1.89;82.72
10618;BME280;5356;43.526;26.534;2023-03-13T05:27:27;99802.75;;;1.98;82.62
10618;BME280;5356;43.526;26.534;2023-03-13T05:29:52;99807.72;;;2.01;82.73
10618;BME280;5356;43.526;26.534;2023-03-13T05:32:18;99810.28;;;2.11;82.76
10618;BME280;5356;43.526;26.534;2023-03-13T05:34:43;99809.66;;;2.17;82.33
10618;BME280;5356;43.526;26.534;2023-03-13T05:37:08;99815.31;;;2.22;82.37
10618;BME280;5356;43.526;26.534;2023-03-13T05:39:34;99815.69;;;2.27;82.35
10618;BME280;5356;43.526;26.534;2023-03-13T05:41:59;99818.22;;;2.37;81.99
10618;BME280;5356;43.526;26.534;2023-03-13T05:44:25;99821.06;;;2.43;82.13
10618;BME280;5356;43.526;26.534;2023-03-13T05:46:50;99820.50;;;2.50;82.03
10618;BME280;5356;43.526;26.534;2023-03-13T05:49:15;99829.88;;;2.52;82.01
10618;BME280;5356;43.526;26.534;2023-03-13T05:51:41;99820.38;;;2.59;81.84
10618;BME280;5356;43.526;26.534;2023-03-13T05:54:06;99816.19;;;2.66;82.14
10618;BME280;5356;43.526;26.534;2023-03-13T05:56:32;99818.03;;;2.74;82.65
10618;BME280;5356;43.526;26.534;2023-03-13T05:58:57;99816.06;;;2.76;82.57
10618;BME280;5356;43.526;26.534;2023-03-13T06:01:23;99816.81;;;2.86;82.86
10618;BME280;5356;43.526;26.534;2023-03-13T06:03:48;99821.97;;;2.96;82.82
10618;BME280;5356;43.526;26.534;2023-03-13T06:06:13;99823.00;;;3.03;83.21
10618;BME280;5356;43.526;26.534;2023-03-13T06:08:39;99831.66;;;3.22;83.18
10618;BME280;5356;43.526;26.534;2023-03-13T06:11:04;99828.03;;;3.23;83.01
10618;BME280;5356;43.526;26.534;2023-03-13T06:13:30;99833.78;;;3.18;83.57
10618;BME280;5356;43.526;26.534;2023-03-13T06:15:56;99842.25;;;3.30;83.88
10618;BME280;5356;43.526;26.534;2023-03-13T06:18:23;99846.09;;;3.44;84.07
10618;BME280;5356;43.526;26.534;2023-03-13T06:20:54;99837.59;;;3.58;83.97
10618;BME280;5356;43.526;26.534;2023-03-13T06:23:20;99845.09;;;3.79;83.91
10618;BME280;5356;43.526;26.534;2023-03-13T06:25:48;99845.97;;;3.96;83.78
10618;BME280;5356;43.526;26.534;2023-03-13T06:28:15;99844.81;;;3.98;83.98
10618;BME280;5356;43.526;26.534;2023-03-13T06:30:40;99841.00;;;3.93;84.82
10618;BME280;5356;43.526;26.534;2023-03-13T06:33:06;99842.69;;;4.10;84.69
10618;BME280;5356;43.526;26.534;2023-03-13T06:35:31;99831.22;;;4.19;84.92
10618;BME280;5356;43.526;26.534;2023-03-13T06:37:57;99837.97;;;4.38;84.38
10618;BME280;5356;43.526;26.534;2023-03-13T06:40:22;99840.81;;;4.53;84.35
10618;BME280;5356;43.526;26.534;2023-03-13T06:42:48;99840.78;;;4.69;84.28
10618;BME280;5356;43.526;26.534;2023-03-13T06:45:13;99840.28;;;4.90;83.43
10618;BME280;5356;43.526;26.534;2023-03-13T06:47:39;99840.59;;;5.04;84.13
10618;BME280;5356;43.526;26.534;2023-03-13T06:50:04;99835.78;;;5.24;83.87
10618;BME280;5356;43.526;26.534;2023-03-13T06:52:30;99833.28;;;5.38;83.35
10618;BME280;5356;43.526;26.534;2023-03-13T06:54:55;99821.44;;;5.57;83.55
10618;BME280;5356;43.526;26.534;2023-03-13T06:57:21;99831.06;;;5.58;83.82
10618;BME280;5356;43.526;26.534;2023-03-13T06:59:46;99831.00;;;5.75;83.57
10618;BME280;5356;43.526;26.534;2023-03-13T07:02:12;99818.66;;;5.90;83.41
10618;BME280;5356;43.526;26.534;2023-03-13T07:04:37;99812.66;;;6.04;83.20
10618;BME280;5356;43.526;26.534;2023-03-13T07:07:04;99812.22;;;6.24;82.91
10618;BME280;5356;43.526;26.534;2023-03-13T07:09:29;99818.69;;;6.44;82.58
10618;BME280;5356;43.526;26.534;2023-03-13T07:11:55;99807.91;;;6.69;82.50
10618;BME280;5356;43.526;26.534;2023-03-13T07:14:22;99816.25;;;6.95;82.12
10618;BME280;5356;43.526;26.534;2023-03-13T07:16:47;99808.44;;;7.17;81.89
10618;BME280;5356;43.526;26.534;2023-03-13T07:19:13;99809.53;;;7.08;81.64
10618;BME280;5356;43.526;26.534;2023-03-13T07:21:39;99800.41;;;7.25;81.61
10618;BME280;5356;43.526;26.534;2023-03-13T07:24:05;99808.69;;;7.52;81.01
10618;BME280;5356;43.526;26.534;2023-03-13T07:26:30;99803.22;;;7.53;80.31
10618;BME280;5356;43.526;26.534;2023-03-13T07:28:56;99798.66;;;7.83;80.68
10618;BME280;5356;43.526;26.534;2023-03-13T07:31:22;99804.13;;;7.97;79.82
10618;BME280;5356;43.526;26.534;2023-03-13T07:33:52;99794.03;;;8.07;78.68
10618;BME280;5356;43.526;26.534;2023-03-13T07:36:20;99795.81;;;8.21;78.97
10618;BME280;5356;43.526;26.534;2023-03-13T07:38:50;99786.63;;;8.39;78.55
10618;BME280;5356;43.526;26.534;2023-03-13T07:41:16;99780.22;;;8.54;77.57
10618;BME280;5356;43.526;26.534;2023-03-13T07:43:42;99787.66;;;8.66;77.62
10618;BME280;5356;43.526;26.534;2023-03-13T07:46:10;99794.88;;;8.72;77.15
10618;BME280;5356;43.526;26.534;2023-03-13T07:48:38;99794.38;;;8.90;77.10
10618;BME280;5356;43.526;26.534;2023-03-13T07:51:06;99787.34;;;9.04;76.39
10618;BME280;5356;43.526;26.534;2023-03-13T07:53:34;99787.22;;;9.18;75.14
10618;BME280;5356;43.526;26.534;2023-03-13T07:56:02;99787.09;;;9.33;74.15
10618;BME280;5356;43.526;26.534;2023-03-13T07:58:31;99783.03;;;9.37;74.01
10618;BME280;5356;43.526;26.534;2023-03-13T08:00:57;99777.72;;;9.44;72.38
10618;BME280;5356;43.526;26.534;2023-03-13T08:03:24;99777.59;;;9.59;72.69
10618;BME280;5356;43.526;26.534;2023-03-13T08:06:17;99776.22;;;9.76;71.75
10618;BME280;5356;43.526;26.534;2023-03-13T08:08:43;99774.88;;;10.00;71.74
10618;BME280;5356;43.526;26.534;2023-03-13T08:11:13;99773.66;;;10.09;70.43
10618;BME280;5356;43.526;26.534;2023-03-13T08:13:40;99774.50;;;10.23;69.36
10618;BME280;5356;43.526;26.534;2023-03-13T08:16:13;99778.22;;;10.29;68.15
10618;BME280;5356;43.526;26.534;2023-03-13T08:18:41;99768.41;;;10.43;67.70
10618;BME280;5356;43.526;26.534;2023-03-13T08:21:12;99766.97;;;10.53;67.00
10618;BME280;5356;43.526;26.534;2023-03-13T08:23:37;99771.28;;;10.68;65.83
10618;BME280;5356;43.526;26.534;2023-03-13T08:28:32;99766.97;;;10.80;64.46
10618;BME280;5356;43.526;26.534;2023-03-13T08:30:57;99770.03;;;10.90;63.81
10618;BME280;5356;43.526;26.534;2023-03-13T08:33:23;99771.25;;;10.88;62.94
10618;BME280;5356;43.526;26.534;2023-03-13T08:35:48;99763.44;;;10.99;61.73
10618;BME280;5356;43.526;26.534;2023-03-13T08:38:14;99770.81;;;11.11;61.28
10618;BME280;5356;43.526;26.534;2023-03-13T08:40:39;99767.34;;;11.10;59.37
10618;BME280;5356;43.526;26.534;2023-03-13T08:43:04;99770.59;;;11.19;58.62
10618;BME280;5356;43.526;26.534;2023-03-13T08:45:30;99772.38;;;11.38;58.28
10618;BME280;5356;43.526;26.534;2023-03-13T08:47:55;99775.03;;;11.45;57.01
10618;BME280;5356;43.526;26.534;2023-03-13T08:50:21;99768.41;;;11.61;56.97
10618;BME280;5356;43.526;26.534;2023-03-13T08:52:46;99769.75;;;11.77;56.88
10618;BME280;5356;43.526;26.534;2023-03-13T08:55:12;99770.34;;;11.85;54.84
10618;BME280;5356;43.526;26.534;2023-03-13T08:57:37;99768.03;;;11.96;53.48
10618;BME280;5356;43.526;26.534;2023-03-13T09:00:03;99770.91;;;12.01;52.88
10618;BME280;5356;43.526;26.534;2023-03-13T09:02:31;99778.38;;;12.17;53.46
10618;BME280;5356;43.526;26.534;2023-03-13T09:04:56;99770.63;;;12.41;53.50
10618;BME280;5356;43.526;26.534;2023-03-13T09:07:21;99775.28;;;12.52;53.34
10618;BME280;5356;43.526;26.534;2023-03-13T09:09:47;99760.13;;;12.46;51.71
10618;BME280;5356;43.526;26.534;2023-03-13T09:12:12;99762.56;;;12.47;49.90
10618;BME280;5356;43.526;26.534;2023-03-13T09:14:38;99754.28;;;12.55;49.95
10618;BME280;5356;43.526;26.534;2023-03-13T09:17:03;99753.03;;;12.76;50.60
10618;BME280;5356;43.526;26.534;2023-03-13T09:19:29;99755.69;;;12.83;50.08
10618;BME280;5356;43.526;26.534;2023-03-13T09:21:54;99754.22;;;13.06;50.35
10618;BME280;5356;43.526;26.534;2023-03-13T09:24:20;99753.03;;;13.20;50.38
10618;BME280;5356;43.526;26.534;2023-03-13T09:26:45;99744.84;;;13.15;48.27
10618;BME280;5356;43.526;26.534;2023-03-13T09:29:11;99757.41;;;12.96;49.19
10618;BME280;5356;43.526;26.534;2023-03-13T09:31:36;99752.38;;;13.06;49.13
10618;BME280;5356;43.526;26.534;2023-03-13T09:34:02;99745.06;;;12.95;48.07
10618;BME280;5356;43.526;26.534;2023-03-13T09:36:28;99748.19;;;12.92;47.02
10618;BME280;5356;43.526;26.534;2023-03-13T09:38:55;99748.34;;;12.97;47.54
10618;BME280;5356;43.526;26.534;2023-03-13T09:44:54;99747.00;;;13.24;46.78
10618;BME280;5356;43.526;26.534;2023-03-13T09:49:56;99746.16;;;13.31;46.64
10618;BME280;5356;43.526;26.534;2023-03-13T09:52:38;99745.72;;;13.34;45.88
10618;BME280;5356;43.526;26.534;2023-03-13T09:55:30;99749.16;;;13.16;45.58
10618;BME280;5356;43.526;26.534;2023-03-13T09:58:23;99743.53;;;13.06;44.56
10618;BME280;5356;43.526;26.534;2023-03-13T10:00:59;99747.00;;;13.06;44.08
10618;BME280;5356;43.526;26.534;2023-03-13T10:03:29;99734.69;;;13.05;45.12
10618;BME280;5356;43.526;26.534;2023-03-13T10:05:59;99733.19;;;13.09;44.69
10618;BME280;5356;43.526;26.534;2023-03-13T10:08:28;99729.88;;;13.14;45.37
10618;BME280;5356;43.526;26.534;2023-03-13T10:13:40;99729.00;;;13.68;44.88
10618;BME280;5356;43.526;26.534;2023-03-13T10:16:06;99722.72;;;13.93;44.58
10618;BME280;5356;43.526;26.534;2023-03-13T10:18:34;99722.28;;;14.08;44.42
10618;BME280;5356;43.526;26.534;2023-03-13T10:21:09;99722.63;;;14.11;44.14
10618;BME280;5356;43.526;26.534;2023-03-13T10:23:47;99730.47;;;14.25;43.38
10618;BME280;5356;43.526;26.534;2023-03-13T10:26:21;99720.22;;;14.33;43.74
10618;BME280;5356;43.526;26.534;2023-03-13T10:28:50;99721.38;;;14.37;43.15
10618;BME280;5356;43.526;26.534;2023-03-13T10:31:36;99717.09;;;14.36;43.16
10618;BME280;5356;43.526;26.534;2023-03-13T10:34:06;99720.69;;;14.42;42.54
10618;BME280;5356;43.526;26.534;2023-03-13T10:36:41;99706.84;;;14.45;42.33
10618;BME280;5356;43.526;26.534;2023-03-13T10:39:14;99700.47;;;14.58;42.80
10618;BME280;5356;43.526;26.534;2023-03-13T10:41:39;99704.09;;;14.64;42.15
10618;BME280;5356;43.526;26.534;2023-03-13T10:44:13;99690.56;;;14.70;42.28
10618;BME280;5356;43.526;26.534;2023-03-13T10:46:41;99691.16;;;14.72;41.90
10618;BME280;5356;43.526;26.534;2023-03-13T10:49:18;99683.31;;;14.71;41.47
10618;BME280;5356;43.526;26.534;2023-03-13T10:51:50;99689.25;;;14.85;41.25
10618;BME280;5356;43.526;26.534;2023-03-13T10:56:48;99679.13;;;14.75;39.76
10618;BME280;5356;43.526;26.534;2023-03-13T11:01:46;99678.06;;;14.88;39.98
10618;BME280;5356;43.526;26.534;2023-03-13T11:04:31;99664.50;;;15.06;40.04
10618;BME280;5356;43.526;26.534;2023-03-13T11:07:01;99664.94;;;15.15;38.83
10618;BME280;5356;43.526;26.534;2023-03-13T11:09:27;99665.56;;;14.93;38.45
10618;BME280;5356;43.526;26.534;2023-03-13T11:12:02;99652.75;;;14.72;38.24
10618;BME280;5356;43.526;26.534;2023-03-13T11:14:29;99649.03;;;14.85;38.69
10618;BME280;5356;43.526;26.534;2023-03-13T11:16:59;99638.25;;;14.96;38.79
10618;BME280;5356;43.526;26.534;2023-03-13T11:20:28;99635.44;;;15.03;38.33
10618;BME280;5356;43.526;26.534;2023-03-13T11:27:49;99629.75;;;14.88;37.39
10618;BME280;5356;43.526;26.534;2023-03-13T11:33:35;99629.22;;;15.14;37.64
10618;BME280;5356;43.526;26.534;2023-03-13T11:36:51;99627.84;;;15.40;37.53
10618;BME280;5356;43.526;26.534;2023-03-13T11:42:08;99615.94;;;15.36;36.93
10618;BME280;5356;43.526;26.534;2023-03-13T11:44:50;99606.31;;;15.52;37.01
10618;BME280;5356;43.526;26.534;2023-03-13T11:50:22;99606.25;;;15.64;36.03
10618;BME280;5356;43.526;26.534;2023-03-13T11:55:28;99605.31;;;15.70;35.96
10618;BME280;5356;43.526;26.534;2023-03-13T11:58:16;99601.09;;;15.74;36.20
10618;BME280;5356;43.526;26.534;2023-03-13T12:00:52;99603.84;;;15.79;35.74
10618;BME280;5356;43.526;26.534;2023-03-13T12:03:53;99602.34;;;15.55;35.24
10618;BME280;5356;43.526;26.534;2023-03-13T12:06:24;99602.97;;;15.62;35.77
10618;BME280;5356;43.526;26.534;2023-03-13T12:11:40;99597.97;;;15.08;33.83
10618;BME280;5356;43.526;26.534;2023-03-13T12:16:59;99587.59;;;15.12;35.00
10618;BME280;5356;43.526;26.534;2023-03-13T12:19:36;99584.50;;;15.20;34.45
10618;BME280;5356;43.526;26.534;2023-03-13T12:22:19;99592.59;;;15.37;34.99
10618;BME280;5356;43.526;26.534;2023-03-13T12:25:23;99579.63;;;15.62;34.90
10618;BME280;5356;43.526;26.534;2023-03-13T12:27:52;99582.88;;;15.64;34.12
10618;BME280;5356;43.526;26.534;2023-03-13T12:30:39;99577.97;;;15.90;34.43
10618;BME280;5356;43.526;26.534;2023-03-13T12:33:42;99576.31;;;16.06;34.03
10618;BME280;5356;43.526;26.534;2023-03-13T12:36:12;99580.63;;;16.07;34.07
10618;BME280;5356;43.526;26.534;2023-03-13T12:38:48;99572.84;;;16.27;34.26
10618;BME280;5356;43.526;26.534;2023-03-13T12:41:32;99574.81;;;16.32;33.80
10618;BME280;5356;43.526;26.534;2023-03-13T12:44:03;99569.25;;;16.38;33.87
10618;BME280;5356;43.526;26.534;2023-03-13T12:46:46;99570.16;;;16.27;33.72
10618;BME280;5356;43.526;26.534;2023-03-13T12:59:53;99575.78;;;16.81;33.70
10618;BME280;5356;43.526;26.534;2023-03-13T13:02:23;99569.41;;;16.93;33.61
10618;BME280;5356;43.526;26.534;2023-03-13T13:04:50;99567.47;;;17.10;33.50
10618;BME280;5356;43.526;26.534;2023-03-13T13:07:26;99566.19;;;17.18;33.34
10618;BME280;5356;43.526;26.534;2023-03-13T13:12:41;99562.03;;;17.05;33.09
10618;BME280;5356;43.526;26.534;2023-03-13T13:15:11;99570.03;;;17.00;32.66
10618;BME280;5356;43.526;26.534;2023-03-13T13:18:21;99572.50;;;17.28;33.00
10618;BME280;5356;43.526;26.534;2023-03-13T13:23:40;99569.41;;;17.15;32.30
10618;BME280;5356;43.526;26.534;2023-03-13T13:28:55;99561.50;;;17.30;32.32
10618;BME280;5356;43.526;26.534;2023-03-13T13:39:46;99543.78;;;17.71;31.98
10618;BME280;5356;43.526;26.534;2023-03-13T13:47:43;99526.16;;;17.91;31.98
10618;BME280;5356;43.526;26.534;2023-03-13T13:50:29;99531.31;;;17.60;31.85
10618;BME280;5356;43.526;26.534;2023-03-13T13:53:27;99531.28;;;17.55;31.63
10618;BME280;5356;43.526;26.534;2023-03-13T13:55:54;99524.66;;;17.41;31.96
10618;BME280;5356;43.526;26.534;2023-03-13T13:58:24;99535.59;;;17.56;31.81
10618;BME280;5356;43.526;26.534;2023-03-13T14:00:54;99531.28;;;17.55;31.87
10618;BME280;5356;43.526;26.534;2023-03-13T14:03:24;99519.19;;;17.63;31.54
10618;BME280;5356;43.526;26.534;2023-03-13T14:05:54;99532.56;;;17.47;31.19
10618;BME280;5356;43.526;26.534;2023-03-13T14:08:32;99529.91;;;17.53;31.89
10618;BME280;5356;43.526;26.534;2023-03-13T14:13:39;99523.53;;;17.64;31.79
10618;BME280;5356;43.526;26.534;2023-03-13T14:16:21;99524.06;;;17.61;31.81
10618;BME280;5356;43.526;26.534;2023-03-13T14:18:48;99516.91;;;17.44;31.66
10618;BME280;5356;43.526;26.534;2023-03-13T14:21:21;99519.91;;;17.48;31.66
10618;BME280;5356;43.526;26.534;2023-03-13T14:23:47;99519.22;;;17.31;31.48
10618;BME280;5356;43.526;26.534;2023-03-13T14:26:24;99511.94;;;17.31;31.83
10618;BME280;5356;43.526;26.534;2023-03-13T14:28:57;99512.91;;;17.52;31.96
10618;BME280;5356;43.526;26.534;2023-03-13T14:33:51;99518.28;;;17.47;31.77
10618;BME280;5356;43.526;26.534;2023-03-13T14:36:17;99514.22;;;17.44;31.58
10618;BME280;5356;43.526;26.534;2023-03-13T14:38:56;99519.03;;;17.42;31.88
10618;BME280;5356;43.526;26.534;2023-03-13T14:41:27;99512.63;;;17.48;31.83